createdAt,value
2022-08-09T00:01:16.381Z,0.00
2022-08-09T00:06:18.272Z,0.00
2022-08-09T00:11:24.638Z,0.00
2022-08-09T00:16:13.120Z,0.00
2022-08-09T00:21:12.026Z,0.00
2022-08-09T00:26:11.967Z,0.00
2022-08-09T00:31:57.398Z,0.00
2022-08-09T00:36:12.863Z,0.00
2022-08-09T00:41:11.782Z,0.00
2022-08-09T00:46:28.474Z,0.00
2022-08-09T00:51:13.133Z,0.00
2022-08-09T00:56:11.571Z,0.00
2022-08-09T01:01:16.259Z,0.00
2022-08-09T01:06:17.821Z,0.00
2022-08-09T01:11:15.115Z,0.00
2022-08-09T01:16:11.312Z,0.00
2022-08-09T01:21:11.235Z,0.00
2022-08-09T01:26:11.180Z,0.00
2022-08-09T01:31:11.117Z,0.00
2022-08-09T01:36:12.071Z,0.00
2022-08-09T01:41:10.978Z,0.00
2022-08-09T01:46:10.925Z,0.00
2022-08-09T01:51:10.856Z,0.00
2022-08-09T01:56:11.817Z,0.00
2022-08-09T02:01:10.763Z,0.00
2022-08-09T02:06:10.669Z,0.00
2022-08-09T02:11:17.100Z,0.00
2022-08-09T02:16:10.541Z,0.00
2022-08-09T02:21:10.458Z,0.00
2022-08-09T02:26:26.952Z,0.00
2022-08-09T02:31:12.336Z,0.00
2022-08-09T02:36:10.543Z,0.00
2022-08-09T02:41:10.199Z,0.00
2022-08-09T02:46:10.149Z,0.00
2022-08-09T02:51:10.063Z,0.00
2022-08-09T02:56:10.004Z,0.00
2022-08-09T03:01:11.060Z,0.00
2022-08-09T03:06:09.869Z,0.00
2022-08-09T03:11:10.413Z,0.00
2022-08-09T03:16:09.735Z,0.00
2022-08-09T03:21:09.687Z,0.00
2022-08-09T03:26:09.617Z,0.00
2022-08-09T03:31:10.397Z,0.00
2022-08-09T03:36:16.546Z,5.62
2022-08-09T03:41:09.422Z,11.25
2022-08-09T03:46:20.651Z,16.87
2022-08-09T03:51:43.672Z,22.50
2022-08-09T03:56:10.284Z,33.75
2022-08-09T04:01:09.230Z,45.00
2022-08-09T04:06:09.099Z,61.87
2022-08-09T04:11:11.120Z,84.37
2022-08-09T04:16:19.560Z,101.25
2022-08-09T04:21:09.917Z,129.37
2022-08-09T04:26:08.826Z,146.25
2022-08-09T04:31:09.899Z,191.25
2022-08-09T04:36:08.697Z,180.00
2022-08-09T04:41:11.971Z,196.87
2022-08-09T04:46:08.565Z,213.75
2022-08-09T04:51:08.493Z,241.87
2022-08-09T04:56:08.449Z,270.00
2022-08-09T05:01:16.287Z,303.75
2022-08-09T05:06:08.329Z,298.12
2022-08-09T05:11:08.233Z,309.37
2022-08-09T05:16:08.188Z,360.00
2022-08-09T05:21:13.378Z,444.37
2022-08-09T05:26:09.075Z,613.12
2022-08-09T05:31:09.529Z,618.75
2022-08-09T05:36:07.925Z,1299.37
2022-08-09T05:41:12.689Z,1704.37
2022-08-09T05:46:07.773Z,1175.62
2022-08-09T05:51:16.845Z,945.00
2022-08-09T05:56:08.684Z,1434.37
2022-08-09T06:01:07.568Z,2025.00
2022-08-09T06:06:07.516Z,3493.12
2022-08-09T06:11:17.406Z,3414.37
2022-08-09T06:16:07.391Z,2840.62
2022-08-09T06:21:07.318Z,3183.75
2022-08-09T06:26:07.260Z,1186.87
2022-08-09T06:31:07.196Z,1175.62
2022-08-09T06:36:07.323Z,2970.00
2022-08-09T06:41:09.413Z,3886.87
2022-08-09T06:46:10.917Z,3183.75
2022-08-09T06:51:06.927Z,4173.75
2022-08-09T06:56:06.870Z,4381.87
2022-08-09T07:01:07.872Z,4201.87
2022-08-09T07:06:06.737Z,4353.75
2022-08-09T07:11:06.993Z,4173.75
2022-08-09T07:16:41.486Z,3543.75
2022-08-09T07:21:08.266Z,4561.87
2022-08-09T07:26:06.470Z,4410.00
2022-08-09T07:31:06.402Z,4325.62
2022-08-09T07:36:06.352Z,5079.37
2022-08-09T07:41:11.499Z,4415.62
2022-08-09T07:46:06.214Z,4218.75
2022-08-09T07:52:02.629Z,4888.12
2022-08-09T07:56:07.138Z,4078.12
2022-08-09T08:01:11.183Z,5118.75
2022-08-09T08:06:05.964Z,5298.75
2022-08-09T08:12:11.436Z,4556.25
2022-08-09T08:16:06.855Z,4668.75
2022-08-09T08:21:06.848Z,3847.50
2022-08-09T08:26:06.214Z,2688.75
2022-08-09T08:31:14.272Z,5220.00
2022-08-09T08:36:05.556Z,4865.62
2022-08-09T08:41:06.286Z,4612.50
2022-08-09T08:46:32.730Z,5096.25
2022-08-09T08:51:06.402Z,3594.37
2022-08-09T08:56:05.303Z,4798.12
2022-08-09T09:01:09.100Z,4725.00
2022-08-09T09:06:06.203Z,4629.37
2022-08-09T09:11:05.682Z,4438.12
2022-08-09T09:16:05.048Z,4747.50
2022-08-09T09:21:05.001Z,770.62
2022-08-09T09:26:12.152Z,956.25
2022-08-09T09:31:04.875Z,770.62
2022-08-09T09:36:19.795Z,708.75
2022-08-09T09:41:05.759Z,725.62
2022-08-09T09:51:07.069Z,720.00
2022-08-09T09:56:05.689Z,703.12
2022-08-09T10:01:04.493Z,691.87
2022-08-09T10:06:05.550Z,675.00
2022-08-09T10:11:30.867Z,669.37
2022-08-09T10:16:54.387Z,601.87
2022-08-09T10:21:05.261Z,663.75
2022-08-09T10:26:06.954Z,630.00
2022-08-09T10:36:05.060Z,618.75
2022-08-09T10:41:04.107Z,613.12
2022-08-09T10:46:03.902Z,523.12
2022-08-09T10:51:03.848Z,551.25
2022-08-09T10:56:03.764Z,500.62
2022-08-09T11:03:02.861Z,545.62
2022-08-09T11:06:04.772Z,495.00
2022-08-09T11:11:08.971Z,500.62
2022-08-09T11:16:04.861Z,495.00
2022-08-09T11:21:03.455Z,489.37
2022-08-09T11:26:04.098Z,489.37
2022-08-09T11:31:03.333Z,478.12
2022-08-09T11:36:03.263Z,483.75
2022-08-09T11:41:03.209Z,483.75
2022-08-09T11:46:03.137Z,511.87
2022-08-09T11:52:54.125Z,545.62
2022-08-09T11:56:04.034Z,523.12
2022-08-09T12:01:02.941Z,478.12
2022-08-09T12:06:02.886Z,466.87
2022-08-09T12:11:02.827Z,573.75
2022-08-09T12:16:03.178Z,579.37
2022-08-09T12:21:03.106Z,540.00
2022-08-09T12:26:02.609Z,613.12
2022-08-09T12:31:02.564Z,675.00
2022-08-09T12:36:02.481Z,675.00
2022-08-09T12:41:02.427Z,618.75
2022-08-09T12:46:02.353Z,596.25
2022-08-09T12:51:03.998Z,618.75
2022-08-09T12:56:14.702Z,725.62
2022-08-09T13:01:04.551Z,742.50
2022-08-09T13:06:13.203Z,759.37
2022-08-09T13:11:22.600Z,725.62
2022-08-09T13:16:03.007Z,703.12
2022-08-09T13:22:34.154Z,776.25
2022-08-09T13:26:02.870Z,770.62
2022-08-09T13:32:13.748Z,708.75
2022-08-09T13:36:37.584Z,601.87
2022-08-09T13:41:55.414Z,568.12
2022-08-09T13:46:42.639Z,607.50
2022-08-09T13:51:02.562Z,596.25
2022-08-09T13:56:01.469Z,562.50
2022-08-09T14:01:01.398Z,506.25
2022-08-09T14:06:02.175Z,517.50
2022-08-09T14:11:01.550Z,450.00
2022-08-09T14:16:09.529Z,444.37
2022-08-09T14:21:01.139Z,421.87
2022-08-09T14:26:05.701Z,461.25
2022-08-09T14:31:01.020Z,455.62
2022-08-09T14:36:12.152Z,466.87
2022-08-09T14:41:23.928Z,495.00
2022-08-09T14:46:57.492Z,511.87
2022-08-09T14:51:01.792Z,472.50
2022-08-09T14:56:00.693Z,461.25
2022-08-09T15:01:00.680Z,466.87
2022-08-09T15:06:01.639Z,455.62
2022-08-09T15:11:05.159Z,438.75
2022-08-09T15:16:00.425Z,410.62
2022-08-09T15:21:57.802Z,388.12
2022-08-09T15:26:01.330Z,376.87
2022-08-09T15:31:09.942Z,365.62
2022-08-09T15:36:01.490Z,354.37
2022-08-09T15:41:00.114Z,331.87
2022-08-09T15:46:28.607Z,331.87
2022-08-09T15:51:01.014Z,320.62
2022-08-09T16:01:00.959Z,281.25
2022-08-09T16:06:02.798Z,281.25
2022-08-09T16:10:59.743Z,275.62
2022-08-09T16:16:09.956Z,275.62
2022-08-09T16:21:00.630Z,281.25
2022-08-09T16:26:00.931Z,286.87
2022-08-09T16:30:59.704Z,292.50
2022-08-09T16:36:03.061Z,303.75
2022-08-09T16:40:59.439Z,303.75
2022-08-09T16:45:59.278Z,286.87
2022-08-09T16:51:08.090Z,281.25
2022-08-09T16:56:04.866Z,270.00
2022-08-09T17:00:59.166Z,241.87
2022-08-09T17:06:07.160Z,225.00
2022-08-09T17:10:59.022Z,219.37
2022-08-09T17:16:02.325Z,213.75
2022-08-09T17:20:58.842Z,208.12
2022-08-09T17:26:01.937Z,202.50
2022-08-09T17:30:58.720Z,196.87
2022-08-09T17:35:58.655Z,191.25
2022-08-09T17:40:58.600Z,180.00
2022-08-09T17:46:02.742Z,168.75
2022-08-09T17:51:09.464Z,151.87
2022-08-09T17:56:03.322Z,140.62
2022-08-09T18:00:58.660Z,123.75
2022-08-09T18:05:58.289Z,106.87
2022-08-09T18:11:02.223Z,90.00
2022-08-09T18:16:08.295Z,78.75
2022-08-09T18:21:19.161Z,61.87
2022-08-09T18:25:59.033Z,50.62
2022-08-09T18:30:57.961Z,39.37
2022-08-09T18:36:00.086Z,28.12
2022-08-09T18:40:57.891Z,22.50
2022-08-09T18:46:51.090Z,11.25
2022-08-09T18:50:58.728Z,5.62
2022-08-09T18:56:05.611Z,5.62
2022-08-09T19:01:00.237Z,0.00
2022-08-09T19:06:03.466Z,0.00
2022-08-09T19:10:57.424Z,0.00
2022-08-09T19:15:57.348Z,0.00
2022-08-09T19:20:57.287Z,0.00
2022-08-09T19:26:04.553Z,0.00
2022-08-09T19:30:57.170Z,0.00
2022-08-09T19:35:59.032Z,0.00
2022-08-09T19:40:57.124Z,0.00
2022-08-09T19:45:57.616Z,0.00
2022-08-09T19:50:56.905Z,0.00
2022-08-09T19:56:03.004Z,0.00
2022-08-09T20:00:56.783Z,0.00
2022-08-09T20:05:56.794Z,0.00
2022-08-09T20:10:56.660Z,0.00
2022-08-09T20:16:33.263Z,0.00
2022-08-09T20:20:57.553Z,0.00
2022-08-09T20:25:56.457Z,0.00
2022-08-09T20:30:56.394Z,0.00
2022-08-09T20:35:56.334Z,0.00
2022-08-09T20:40:56.335Z,0.00
2022-08-09T20:46:01.451Z,0.00
2022-08-09T20:50:58.244Z,0.00
2022-08-09T20:56:02.410Z,0.00
2022-08-09T21:01:13.813Z,0.00
2022-08-09T21:05:59.759Z,0.00
2022-08-09T21:10:55.873Z,0.00
2022-08-09T21:15:55.800Z,0.00
2022-08-09T21:20:56.044Z,0.00
2022-08-09T21:25:59.869Z,0.00
2022-08-09T21:30:55.615Z,0.00
2022-08-09T21:35:55.534Z,0.00
2022-08-09T21:40:55.477Z,0.00
2022-08-09T21:45:55.676Z,0.00
2022-08-09T21:50:55.361Z,0.00
2022-08-09T21:55:55.283Z,0.00
2022-08-09T22:00:55.220Z,0.00
2022-08-09T22:05:55.167Z,0.00
2022-08-09T22:11:50.402Z,0.00
2022-08-09T22:15:56.047Z,0.00
2022-08-09T22:20:54.965Z,0.00
2022-08-09T22:26:06.651Z,0.00
2022-08-09T22:30:55.861Z,0.00
2022-08-09T22:36:02.020Z,0.00
2022-08-09T22:40:57.432Z,0.00
2022-08-09T22:48:13.132Z,0.00
2022-08-09T22:50:55.578Z,0.00
2022-08-09T22:56:30.915Z,0.00
2022-08-09T23:00:55.454Z,0.00
2022-08-09T23:05:54.349Z,0.00
2022-08-09T23:10:54.299Z,0.00
2022-08-09T23:16:03.236Z,0.00
2022-08-09T23:20:54.172Z,0.00
2022-08-09T23:25:54.100Z,0.00
2022-08-09T23:30:54.049Z,0.00
2022-08-09T23:36:06.685Z,0.00
2022-08-09T23:40:54.940Z,0.00
2022-08-09T23:45:53.853Z,0.00
2022-08-09T23:50:53.785Z,0.00
2022-08-09T23:55:54.543Z,0.00
